createdAt,value
2022-08-02T00:00:11.066Z,72.88
2022-08-02T00:01:11.126Z,73.04
2022-08-02T00:02:11.363Z,73.73
2022-08-02T00:03:11.064Z,73.62
2022-08-02T00:04:11.074Z,73.55
2022-08-02T00:05:11.076Z,73.49
2022-08-02T00:06:11.069Z,73.84
2022-08-02T00:07:11.073Z,74.08
2022-08-02T00:08:11.063Z,74.02
2022-08-02T00:09:11.069Z,74.21
2022-08-02T00:10:11.073Z,74.57
2022-08-02T00:11:11.067Z,74.57
2022-08-02T00:12:11.377Z,74.44
2022-08-02T00:13:11.073Z,74.36
2022-08-02T00:14:11.069Z,74.57
2022-08-02T00:15:11.066Z,74.44
2022-08-02T00:16:16.922Z,74.34
2022-08-02T00:17:11.074Z,74.49
2022-08-02T00:18:11.072Z,74.48
2022-08-02T00:19:11.065Z,74.45
2022-08-02T00:20:11.073Z,74.61
2022-08-02T00:21:11.069Z,74.69
2022-08-02T00:22:11.348Z,74.87
2022-08-02T00:23:11.060Z,74.96
2022-08-02T00:24:28.726Z,75.11
2022-08-02T00:25:13.142Z,75.31
2022-08-02T00:26:11.059Z,75.15
2022-08-02T00:27:12.058Z,75.24
2022-08-02T00:28:11.091Z,75.32
2022-08-02T00:29:11.058Z,75.64
2022-08-02T00:30:11.061Z,75.74
2022-08-02T00:31:11.057Z,76.01
2022-08-02T00:32:11.368Z,76.10
2022-08-02T00:33:11.065Z,75.83
2022-08-02T00:34:29.790Z,75.99
2022-08-02T00:35:13.218Z,76.22
2022-08-02T00:36:11.061Z,76.33
2022-08-02T00:37:11.062Z,76.76
2022-08-02T00:38:11.058Z,76.45
2022-08-02T00:39:35.312Z,76.70
2022-08-02T00:40:13.137Z,76.81
2022-08-02T00:41:13.059Z,76.78
2022-08-02T00:42:11.408Z,76.95
2022-08-02T00:43:11.063Z,76.90
2022-08-02T00:44:11.429Z,77.00
2022-08-02T00:45:11.056Z,76.80
2022-08-02T00:46:11.064Z,76.71
2022-08-02T00:47:11.080Z,77.11
2022-08-02T00:48:13.309Z,77.02
2022-08-02T00:49:11.194Z,77.20
2022-08-02T00:50:11.070Z,77.57
2022-08-02T00:51:11.060Z,77.26
2022-08-02T00:52:11.285Z,77.15
2022-08-02T00:53:11.068Z,77.11
2022-08-02T00:54:11.064Z,77.42
2022-08-02T00:55:11.064Z,77.60
2022-08-02T00:56:11.065Z,77.67
2022-08-02T00:57:11.063Z,78.04
2022-08-02T00:58:11.062Z,77.78
2022-08-02T00:59:11.061Z,78.26
2022-08-02T01:00:11.065Z,78.14
2022-08-02T01:01:11.158Z,78.17
2022-08-02T01:02:11.569Z,77.96
2022-08-02T01:03:11.064Z,77.78
2022-08-02T01:04:11.062Z,78.18
2022-08-02T01:05:11.064Z,78.16
2022-08-02T01:06:11.612Z,78.23
2022-08-02T01:07:12.714Z,78.17
2022-08-02T01:08:11.065Z,78.28
2022-08-02T01:09:11.072Z,78.40
2022-08-02T01:10:11.065Z,78.23
2022-08-02T01:11:11.066Z,78.13
2022-08-02T01:12:11.835Z,78.17
2022-08-02T01:13:11.067Z,78.26
2022-08-02T01:14:11.065Z,78.56
2022-08-02T01:15:11.084Z,78.90
2022-08-02T01:16:18.079Z,78.68
2022-08-02T01:17:19.067Z,78.66
2022-08-02T01:18:18.064Z,78.98
2022-08-02T01:19:19.078Z,79.37
2022-08-02T01:20:19.067Z,79.40
2022-08-02T01:21:19.066Z,79.08
2022-08-02T01:22:21.178Z,78.81
2022-08-02T01:23:19.059Z,78.82
2022-08-02T01:24:19.066Z,78.93
2022-08-02T01:25:19.059Z,79.02
2022-08-02T01:26:19.059Z,79.05
2022-08-02T01:27:23.063Z,79.23
2022-08-02T01:28:19.059Z,79.22
2022-08-02T01:29:13.064Z,79.45
2022-08-02T01:30:11.061Z,79.29
2022-08-02T01:31:19.056Z,79.26
2022-08-02T01:32:14.442Z,79.33
2022-08-02T01:33:12.067Z,79.33
2022-08-02T01:34:19.059Z,79.18
2022-08-02T01:35:19.060Z,79.24
2022-08-02T01:36:13.073Z,79.42
2022-08-02T01:37:17.070Z,79.57
2022-08-02T01:38:16.062Z,79.53
2022-08-02T01:39:26.938Z,79.53
2022-08-02T01:40:15.172Z,79.59
2022-08-02T01:41:13.063Z,79.51
2022-08-02T01:42:11.333Z,79.54
2022-08-02T01:43:12.327Z,79.28
2022-08-02T01:44:11.063Z,79.38
2022-08-02T01:45:12.061Z,79.35
2022-08-02T01:46:12.061Z,79.51
2022-08-02T01:47:16.063Z,79.62
2022-08-02T01:48:11.067Z,79.68
2022-08-02T01:49:15.107Z,80.04
2022-08-02T01:50:13.072Z,79.84
2022-08-02T01:51:12.064Z,79.84
2022-08-02T01:52:15.062Z,80.09
2022-08-02T01:53:11.065Z,80.40
2022-08-02T01:54:14.069Z,80.32
2022-08-02T01:55:18.887Z,80.22
2022-08-02T01:56:11.060Z,79.98
2022-08-02T01:57:12.066Z,79.86
2022-08-02T01:58:11.066Z,80.25
2022-08-02T01:59:13.060Z,80.38
2022-08-02T02:00:11.066Z,80.49
2022-08-02T02:01:14.458Z,80.34
2022-08-02T02:02:13.685Z,80.43
2022-08-02T02:03:13.064Z,80.60
2022-08-02T02:04:11.076Z,80.74
2022-08-02T02:05:14.062Z,81.09
2022-08-02T02:06:11.069Z,81.00
2022-08-02T02:07:12.073Z,81.07
2022-08-02T02:08:11.068Z,80.77
2022-08-02T02:09:11.067Z,80.52
2022-08-02T02:10:13.074Z,80.77
2022-08-02T02:12:11.001Z,80.93
2022-08-02T02:12:14.932Z,81.30
2022-08-02T02:13:13.067Z,81.17
2022-08-02T02:14:11.069Z,81.32
2022-08-02T02:15:12.065Z,81.20
2022-08-02T02:16:11.066Z,80.75
2022-08-02T02:18:10.658Z,80.76
2022-08-02T02:18:14.353Z,80.89
2022-08-02T02:19:11.067Z,80.96
2022-08-02T02:20:14.068Z,81.19
2022-08-02T02:21:11.065Z,81.39
2022-08-02T02:22:11.298Z,81.26
2022-08-02T02:23:11.075Z,80.92
2022-08-02T02:24:11.655Z,81.07
2022-08-02T02:25:15.056Z,81.31
2022-08-02T02:26:13.076Z,81.12
2022-08-02T02:27:11.062Z,80.92
2022-08-02T02:28:12.060Z,81.00
2022-08-02T02:29:11.064Z,81.25
2022-08-02T02:30:11.062Z,81.13
2022-08-02T02:31:13.061Z,81.43
2022-08-02T02:32:11.246Z,81.36
2022-08-02T02:33:11.063Z,81.29
2022-08-02T02:34:15.061Z,81.16
2022-08-02T02:35:11.062Z,81.64
2022-08-02T02:36:11.070Z,81.38
2022-08-02T02:37:14.062Z,81.24
2022-08-02T02:38:12.063Z,81.54
2022-08-02T02:39:13.753Z,81.25
2022-08-02T02:40:11.062Z,81.18
2022-08-02T02:41:11.064Z,81.04
2022-08-02T02:42:13.544Z,81.07
2022-08-02T02:43:11.079Z,81.08
2022-08-02T02:44:15.060Z,81.34
2022-08-02T02:45:11.062Z,80.89
2022-08-02T02:46:11.063Z,80.72
2022-08-02T02:47:11.062Z,80.66
2022-08-02T02:48:11.065Z,80.95
2022-08-02T02:49:11.195Z,80.85
2022-08-02T02:50:11.071Z,80.85
2022-08-02T02:51:13.899Z,80.70
2022-08-02T02:52:11.232Z,80.82
2022-08-02T02:53:11.065Z,80.70
2022-08-02T02:54:32.848Z,80.77
2022-08-02T02:55:13.196Z,80.57
2022-08-02T02:56:11.065Z,80.54
2022-08-02T02:57:11.068Z,80.68
2022-08-02T02:58:11.074Z,80.73
2022-08-02T02:59:11.064Z,80.60
2022-08-02T03:00:14.067Z,80.49
2022-08-02T03:01:15.157Z,80.47
2022-08-02T03:02:11.178Z,80.39
2022-08-02T03:03:11.065Z,80.70
2022-08-02T03:04:12.066Z,80.90
2022-08-02T03:05:11.069Z,81.19
2022-08-02T03:06:15.720Z,80.91
2022-08-02T03:07:13.343Z,80.96
2022-08-02T03:08:11.075Z,81.01
2022-08-02T03:09:11.412Z,81.14
2022-08-02T03:10:11.072Z,80.86
2022-08-02T03:11:11.077Z,80.90
2022-08-02T03:12:11.380Z,80.89
2022-08-02T03:13:11.068Z,80.68
2022-08-02T03:14:11.076Z,81.18
2022-08-02T03:15:12.069Z,80.85
2022-08-02T03:16:11.066Z,81.01
2022-08-02T03:17:11.069Z,80.88
2022-08-02T03:18:16.078Z,80.75
2022-08-02T03:19:11.069Z,80.74
2022-08-02T03:20:16.069Z,80.73
2022-08-02T03:21:11.069Z,80.72
2022-08-02T03:22:11.417Z,80.92
2022-08-02T03:23:11.056Z,80.78
2022-08-02T03:24:11.058Z,80.85
2022-08-02T03:25:11.062Z,80.79
2022-08-02T03:26:11.059Z,80.67
2022-08-02T03:27:11.058Z,80.61
2022-08-02T03:28:11.060Z,80.59
2022-08-02T03:29:11.241Z,80.98
2022-08-02T03:30:11.060Z,80.81
2022-08-02T03:31:11.067Z,80.93
2022-08-02T03:32:11.329Z,80.81
2022-08-02T03:33:11.063Z,80.84
2022-08-02T03:34:11.067Z,80.69
2022-08-02T03:35:12.061Z,80.88
2022-08-02T03:36:13.057Z,80.79
2022-08-02T03:37:11.064Z,80.81
2022-08-02T03:38:12.062Z,80.70
2022-08-02T03:39:11.059Z,80.54
2022-08-02T03:40:11.060Z,80.85
2022-08-02T03:41:11.061Z,81.17
2022-08-02T03:42:15.489Z,81.04
2022-08-02T03:43:11.062Z,80.88
2022-08-02T03:44:11.063Z,80.80
2022-08-02T03:45:11.065Z,80.94
2022-08-02T03:46:11.062Z,80.91
2022-08-02T03:47:11.070Z,81.04
2022-08-02T03:48:34.044Z,80.98
2022-08-02T03:49:13.206Z,80.85
2022-08-02T03:50:12.073Z,80.77
2022-08-02T03:51:11.063Z,80.80
2022-08-02T03:52:11.390Z,80.90
2022-08-02T03:53:19.999Z,80.99
2022-08-02T03:54:13.110Z,81.16
2022-08-02T03:55:11.060Z,81.45
2022-08-02T03:56:11.066Z,81.30
2022-08-02T03:57:11.063Z,81.29
2022-08-02T03:58:15.063Z,81.45
2022-08-02T03:59:13.065Z,81.75
2022-08-02T04:00:17.073Z,81.75
2022-08-02T04:01:11.151Z,81.44
2022-08-02T04:02:11.396Z,81.67
2022-08-02T04:03:11.093Z,81.61
2022-08-02T04:04:13.851Z,81.78
2022-08-02T04:05:11.071Z,82.12
2022-08-02T04:06:11.066Z,81.88
2022-08-02T04:07:11.072Z,81.84
2022-08-02T04:08:35.165Z,81.91
2022-08-02T04:09:13.160Z,81.95
2022-08-02T04:10:11.073Z,81.86
2022-08-02T04:11:15.065Z,81.99
2022-08-02T04:12:11.365Z,81.90
2022-08-02T04:13:11.068Z,82.33
2022-08-02T04:14:11.520Z,82.63
2022-08-02T04:15:11.084Z,82.78
2022-08-02T04:16:19.070Z,82.71
2022-08-02T04:17:11.078Z,82.92
2022-08-02T04:18:11.067Z,82.53
2022-08-02T04:19:14.802Z,82.53
2022-08-02T04:20:19.077Z,82.49
2022-08-02T04:21:13.068Z,82.53
2022-08-02T04:22:15.079Z,82.66
2022-08-02T04:23:11.055Z,82.42
2022-08-02T04:24:11.113Z,82.14
2022-08-02T04:25:17.237Z,82.46
2022-08-02T04:26:13.203Z,82.64
2022-08-02T04:27:49.171Z,82.40
2022-08-02T04:28:16.675Z,82.07
2022-08-02T04:29:13.158Z,82.12
2022-08-02T04:30:11.055Z,81.99
2022-08-02T04:31:11.059Z,82.12
2022-08-02T04:32:11.454Z,82.17
2022-08-02T04:33:11.057Z,82.22
2022-08-02T04:34:15.030Z,82.47
2022-08-02T04:35:19.271Z,82.15
2022-08-02T04:36:13.171Z,81.83
2022-08-02T04:37:11.060Z,81.91
2022-08-02T04:38:12.060Z,82.04
2022-08-02T04:39:11.071Z,81.97
2022-08-02T04:40:11.061Z,82.05
2022-08-02T04:41:11.063Z,81.96
2022-08-02T04:42:11.341Z,81.95
2022-08-02T04:43:11.059Z,82.02
2022-08-02T04:44:11.093Z,82.38
2022-08-02T04:45:11.072Z,82.50
2022-08-02T04:46:13.078Z,82.58
2022-08-02T04:47:11.067Z,82.28
2022-08-02T04:48:11.062Z,82.33
2022-08-02T04:49:11.151Z,82.13
2022-08-02T04:50:11.061Z,82.00
2022-08-02T04:51:11.063Z,81.96
2022-08-02T04:52:11.269Z,82.14
2022-08-02T04:53:11.062Z,81.88
2022-08-02T04:54:11.064Z,82.14
2022-08-02T04:55:11.070Z,82.03
2022-08-02T04:56:11.064Z,82.17
2022-08-02T04:57:15.061Z,81.92
2022-08-02T04:58:38.282Z,82.04
2022-08-02T04:59:13.174Z,81.79
2022-08-02T05:00:11.065Z,81.56
2022-08-02T05:01:11.174Z,81.67
2022-08-02T05:02:11.528Z,81.70
2022-08-02T05:03:11.064Z,81.59
2022-08-02T05:04:11.061Z,81.74
2022-08-02T05:05:11.072Z,81.65
2022-08-02T05:06:19.289Z,81.51
2022-08-02T05:07:13.933Z,81.74
2022-08-02T05:08:11.064Z,81.58
2022-08-02T05:09:11.073Z,81.90
2022-08-02T05:10:11.068Z,81.83
2022-08-02T05:11:11.066Z,82.01
2022-08-02T05:12:11.303Z,81.85
2022-08-02T05:13:11.064Z,81.71
2022-08-02T05:14:11.066Z,81.94
2022-08-02T05:15:12.702Z,81.74
2022-08-02T05:16:11.065Z,81.73
2022-08-02T05:17:11.074Z,81.44
2022-08-02T05:18:11.068Z,81.30
2022-08-02T05:19:11.065Z,81.44
2022-08-02T05:20:11.067Z,81.40
2022-08-02T05:21:11.081Z,81.44
2022-08-02T05:22:11.379Z,81.22
2022-08-02T05:23:11.059Z,81.35
2022-08-02T05:24:11.065Z,81.45
2022-08-02T05:25:11.057Z,81.24
2022-08-02T05:26:11.059Z,81.13
2022-08-02T05:27:17.090Z,81.27
2022-08-02T05:28:13.157Z,80.96
2022-08-02T05:29:11.057Z,80.98
2022-08-02T05:30:11.066Z,80.94
2022-08-02T05:31:13.426Z,80.95
2022-08-02T05:32:11.285Z,80.95
2022-08-02T05:33:11.069Z,81.14
2022-08-02T05:34:12.181Z,81.17
2022-08-02T05:35:11.062Z,80.97
2022-08-02T05:36:11.068Z,81.00
2022-08-02T05:37:11.060Z,81.12
2022-08-02T05:38:11.063Z,81.28
2022-08-02T05:39:12.265Z,81.37
2022-08-02T05:40:13.445Z,81.11
2022-08-02T05:41:11.058Z,81.18
2022-08-02T05:42:11.212Z,81.17
2022-08-02T05:43:15.064Z,81.27
2022-08-02T05:44:11.062Z,81.39
2022-08-02T05:45:11.064Z,81.21
2022-08-02T05:46:11.064Z,81.12
2022-08-02T05:47:11.061Z,81.10
2022-08-02T05:48:11.061Z,81.27
2022-08-02T05:49:11.132Z,81.08
2022-08-02T05:50:11.063Z,81.39
2022-08-02T05:51:13.063Z,81.17
2022-08-02T05:52:17.074Z,81.31
2022-08-02T05:53:19.063Z,81.12
2022-08-02T05:54:20.063Z,80.98
2022-08-02T05:55:15.065Z,80.71
2022-08-02T05:56:24.043Z,80.86
2022-08-02T05:57:21.062Z,80.90
2022-08-02T05:58:19.063Z,81.05
2022-08-02T05:59:19.067Z,80.76
2022-08-02T06:00:11.067Z,80.54
2022-08-02T06:01:13.105Z,80.62
2022-08-02T06:02:21.121Z,80.86
2022-08-02T06:03:19.065Z,80.65
2022-08-02T06:04:19.076Z,80.70
2022-08-02T06:05:18.067Z,80.88
2022-08-02T06:06:15.065Z,80.83
2022-08-02T06:07:11.066Z,80.66
2022-08-02T06:08:12.068Z,80.56
2022-08-02T06:09:17.064Z,80.92
2022-08-02T06:10:13.330Z,80.60
2022-08-02T06:11:12.069Z,80.49
2022-08-02T06:12:12.234Z,80.33
2022-08-02T06:13:13.528Z,80.29
2022-08-02T06:14:11.069Z,80.17
2022-08-02T06:15:13.071Z,79.95
2022-08-02T06:16:13.989Z,79.99
2022-08-02T06:17:11.071Z,79.75
2022-08-02T06:18:11.068Z,79.64
2022-08-02T06:19:13.070Z,79.63
2022-08-02T06:20:13.073Z,79.50
2022-08-02T06:22:31.755Z,79.32
2022-08-02T06:22:32.694Z,79.44
2022-08-02T06:23:13.852Z,79.57
2022-08-02T06:24:14.060Z,79.38
2022-08-02T06:25:11.571Z,79.22
2022-08-02T06:26:15.139Z,79.05
2022-08-02T06:27:15.054Z,79.25
2022-08-02T06:28:11.624Z,79.09
2022-08-02T06:29:11.058Z,79.08
2022-08-02T06:30:11.058Z,79.02
2022-08-02T06:31:11.060Z,78.74
2022-08-02T06:32:11.459Z,78.66
2022-08-02T06:33:11.059Z,78.45
2022-08-02T06:34:11.059Z,78.67
2022-08-02T06:35:11.060Z,78.66
2022-08-02T06:36:16.060Z,78.43
2022-08-02T06:37:21.060Z,78.41
2022-08-02T06:38:12.059Z,78.25
2022-08-02T06:39:19.062Z,78.24
2022-08-02T06:40:21.064Z,78.09
2022-08-02T06:41:14.077Z,77.91
2022-08-02T06:42:14.411Z,77.88
2022-08-02T06:43:18.061Z,77.77
2022-08-02T06:44:45.257Z,77.72
2022-08-02T06:45:13.163Z,77.49
2022-08-02T06:47:09.170Z,77.49
2022-08-02T06:47:13.742Z,77.29
2022-08-02T06:48:11.062Z,77.31
2022-08-02T06:49:11.161Z,77.16
2022-08-02T06:50:11.065Z,77.03
2022-08-02T06:51:11.060Z,76.86
2022-08-02T06:52:11.258Z,76.93
2022-08-02T06:53:11.070Z,76.97
2022-08-02T06:54:11.061Z,77.03
2022-08-02T06:55:11.066Z,76.76
2022-08-02T06:56:11.065Z,76.65
2022-08-02T06:57:11.063Z,76.57
2022-08-02T06:58:11.065Z,76.44
2022-08-02T06:59:11.071Z,76.46
2022-08-02T07:00:12.062Z,76.29
2022-08-02T07:01:11.127Z,76.08
2022-08-02T07:02:11.403Z,75.87
2022-08-02T07:03:11.066Z,75.68
2022-08-02T07:04:11.069Z,75.32
2022-08-02T07:05:11.074Z,75.12
2022-08-02T07:06:11.066Z,75.08
2022-08-02T07:07:11.061Z,75.00
2022-08-02T07:08:11.069Z,74.73
2022-08-02T07:09:20.430Z,74.77
2022-08-02T07:10:13.137Z,74.49
2022-08-02T07:11:11.065Z,74.21
2022-08-02T07:12:11.255Z,74.06
2022-08-02T07:13:11.074Z,73.80
2022-08-02T07:14:11.069Z,73.66
2022-08-02T07:15:11.068Z,73.62
2022-08-02T07:16:11.066Z,73.59
2022-08-02T07:17:11.068Z,73.35
2022-08-02T07:18:11.070Z,73.31
2022-08-02T07:19:11.066Z,73.23
2022-08-02T07:20:11.070Z,73.13
2022-08-02T07:21:11.074Z,72.80
2022-08-02T07:22:11.211Z,72.73
2022-08-02T07:23:11.060Z,72.58
2022-08-02T07:24:11.062Z,72.51
2022-08-02T07:25:11.061Z,72.26
2022-08-02T07:26:11.063Z,72.09
2022-08-02T07:27:12.626Z,72.17
2022-08-02T07:28:24.132Z,71.94
2022-08-02T07:29:13.375Z,72.03
2022-08-02T07:30:11.059Z,71.83
2022-08-02T07:31:11.061Z,72.11
2022-08-02T07:32:11.293Z,71.96
2022-08-02T07:33:11.064Z,72.10
2022-08-02T07:34:13.350Z,72.20
2022-08-02T07:35:11.061Z,72.04
2022-08-02T07:36:16.984Z,72.04
2022-08-02T07:37:25.608Z,72.05
2022-08-02T07:38:13.333Z,72.00
2022-08-02T07:39:11.060Z,71.71
2022-08-02T07:40:13.717Z,71.56
2022-08-02T07:41:11.068Z,71.43
2022-08-02T07:42:11.247Z,71.51
2022-08-02T07:43:11.057Z,71.39
2022-08-02T07:44:11.070Z,71.20
2022-08-02T07:45:11.065Z,71.38
2022-08-02T07:46:11.078Z,71.07
2022-08-02T07:47:11.355Z,70.97
2022-08-02T07:48:11.066Z,71.05
2022-08-02T07:49:11.115Z,70.79
2022-08-02T07:50:11.072Z,70.74
2022-08-02T07:51:15.447Z,70.92
2022-08-02T07:52:13.569Z,70.76
2022-08-02T07:53:11.061Z,70.78
2022-08-02T07:54:11.070Z,70.59
2022-08-02T07:55:13.150Z,70.70
2022-08-02T07:56:11.063Z,70.63
2022-08-02T07:57:11.078Z,70.87
2022-08-02T07:58:13.754Z,70.96
2022-08-02T07:59:11.068Z,70.93
2022-08-02T08:00:11.121Z,70.87
2022-08-02T08:01:11.141Z,70.88
2022-08-02T08:02:11.358Z,70.83
2022-08-02T08:03:11.072Z,71.07
2022-08-02T08:04:11.069Z,70.94
2022-08-02T08:05:11.065Z,71.23
2022-08-02T08:06:11.072Z,70.98
2022-08-02T08:07:11.064Z,70.77
2022-08-02T08:08:16.688Z,70.67
2022-08-02T08:09:13.158Z,70.59
2022-08-02T08:10:11.067Z,70.66
2022-08-02T08:11:11.067Z,70.68
2022-08-02T08:12:11.293Z,70.69
2022-08-02T08:13:11.069Z,70.73
2022-08-02T08:14:14.829Z,70.81
2022-08-02T08:15:13.359Z,70.69
2022-08-02T08:16:11.069Z,70.56
2022-08-02T08:17:11.066Z,70.26
2022-08-02T08:18:11.068Z,70.11
2022-08-02T08:19:11.069Z,70.08
2022-08-02T08:20:15.648Z,70.22
2022-08-02T08:21:11.069Z,70.19
2022-08-02T08:22:11.298Z,70.52
2022-08-02T08:23:11.055Z,70.40
2022-08-02T08:24:11.060Z,70.27
2022-08-02T08:25:11.103Z,70.40
2022-08-02T08:26:15.556Z,70.42
2022-08-02T08:27:11.058Z,70.28
2022-08-02T08:28:11.065Z,70.25
2022-08-02T08:29:11.062Z,70.36
2022-08-02T08:30:11.059Z,70.30
2022-08-02T08:31:11.069Z,70.22
2022-08-02T08:32:15.699Z,70.22
2022-08-02T08:33:13.363Z,70.27
2022-08-02T08:34:11.066Z,70.31
2022-08-02T08:35:11.059Z,70.39
2022-08-02T08:36:11.060Z,70.39
2022-08-02T08:37:17.040Z,70.34
2022-08-02T08:38:13.329Z,70.24
2022-08-02T08:39:11.060Z,70.21
2022-08-02T08:40:11.073Z,70.15
2022-08-02T08:41:11.062Z,70.32
2022-08-02T08:42:11.227Z,70.42
2022-08-02T08:43:12.067Z,70.47
2022-08-02T08:44:11.063Z,70.57
2022-08-02T08:45:11.058Z,70.66
2022-08-02T08:46:12.064Z,70.70
2022-08-02T08:47:11.064Z,70.72
2022-08-02T08:48:12.064Z,70.68
2022-08-02T08:49:21.080Z,70.50
2022-08-02T08:50:18.816Z,70.45
2022-08-02T08:51:16.133Z,70.59
2022-08-02T08:52:13.304Z,70.46
2022-08-02T08:53:12.375Z,70.40
2022-08-02T08:54:12.063Z,70.17
2022-08-02T08:55:11.061Z,70.06
2022-08-02T08:56:16.007Z,70.25
2022-08-02T08:57:11.073Z,70.06
2022-08-02T08:58:11.062Z,70.07
2022-08-02T08:59:11.065Z,70.04
2022-08-02T09:00:11.073Z,70.02
2022-08-02T09:01:12.095Z,69.92
2022-08-02T09:02:17.179Z,70.25
2022-08-02T09:03:13.136Z,69.88
2022-08-02T09:04:11.065Z,69.65
2022-08-02T09:05:14.061Z,69.33
2022-08-02T09:06:11.076Z,69.25
2022-08-02T09:07:11.066Z,69.23
2022-08-02T09:08:16.395Z,68.97
2022-08-02T09:09:13.173Z,69.02
2022-08-02T09:10:19.079Z,68.80
2022-08-02T09:11:18.076Z,68.66
2022-08-02T09:12:15.335Z,68.41
2022-08-02T09:13:37.898Z,68.27
2022-08-02T09:14:13.071Z,68.05
2022-08-02T09:15:15.881Z,67.93
2022-08-02T09:16:13.376Z,67.75
2022-08-02T09:17:11.071Z,67.61
2022-08-02T09:18:11.068Z,67.40
2022-08-02T09:19:19.069Z,67.15
2022-08-02T09:20:11.067Z,66.77
2022-08-02T09:21:11.076Z,66.56
2022-08-02T09:22:11.275Z,66.91
2022-08-02T09:23:11.059Z,66.46
2022-08-02T09:24:19.062Z,66.31
2022-08-02T09:25:17.057Z,65.99
2022-08-02T09:26:14.055Z,65.99
2022-08-02T09:27:14.060Z,65.66
2022-08-02T09:28:13.061Z,65.71
2022-08-02T09:29:11.058Z,65.41
2022-08-02T09:30:16.059Z,65.08
2022-08-02T09:31:17.070Z,64.97
2022-08-02T09:32:11.288Z,64.78
2022-08-02T09:33:11.057Z,64.61
2022-08-02T09:34:11.110Z,64.92
2022-08-02T09:35:11.062Z,64.75
2022-08-02T09:36:11.060Z,64.65
2022-08-02T09:37:19.070Z,64.55
2022-08-02T09:38:14.068Z,64.81
2022-08-02T09:39:14.060Z,64.50
2022-08-02T09:40:11.060Z,64.47
2022-08-02T09:41:19.069Z,64.32
2022-08-02T09:42:11.287Z,64.23
2022-08-02T09:43:11.061Z,64.37
2022-08-02T09:44:15.895Z,64.20
2022-08-02T09:45:11.071Z,64.06
2022-08-02T09:46:17.062Z,63.97
2022-08-02T09:47:15.063Z,64.27
2022-08-02T09:48:11.071Z,64.11
2022-08-02T09:49:11.122Z,64.03
2022-08-02T09:50:14.711Z,64.25
2022-08-02T09:51:11.072Z,64.30
2022-08-02T09:52:11.236Z,64.25
2022-08-02T09:53:13.060Z,64.13
2022-08-02T09:54:11.066Z,64.05
2022-08-02T09:55:11.067Z,63.88
2022-08-02T09:56:30.210Z,63.81
2022-08-02T09:57:13.282Z,63.47
2022-08-02T09:58:17.068Z,63.72
2022-08-02T09:59:11.077Z,63.35
2022-08-02T10:00:14.897Z,63.15
2022-08-02T10:01:13.176Z,63.11
2022-08-02T10:02:14.826Z,62.74
2022-08-02T10:03:16.654Z,62.43
2022-08-02T10:04:21.317Z,62.35
2022-08-02T10:05:13.219Z,62.38
2022-08-02T10:06:11.065Z,62.25
2022-08-02T10:07:11.067Z,62.22
2022-08-02T10:08:11.075Z,62.41
2022-08-02T10:09:11.155Z,62.47
2022-08-02T10:10:11.071Z,62.52
2022-08-02T10:11:11.076Z,62.72
2022-08-02T10:12:11.325Z,62.79
2022-08-02T10:13:11.070Z,62.85
2022-08-02T10:14:11.076Z,62.94
2022-08-02T10:15:11.073Z,62.99
2022-08-02T10:16:11.070Z,63.18
2022-08-02T10:17:11.078Z,63.26
2022-08-02T10:18:35.924Z,63.26
2022-08-02T10:19:13.183Z,63.29
2022-08-02T10:20:11.077Z,63.31
2022-08-02T10:21:14.073Z,63.24
2022-08-02T10:22:14.446Z,63.63
2022-08-02T10:23:13.057Z,63.59
2022-08-02T10:24:15.066Z,63.32
2022-08-02T10:25:11.059Z,63.22
2022-08-02T10:26:12.061Z,63.22
2022-08-02T10:27:15.061Z,63.16
2022-08-02T10:28:15.078Z,63.22
2022-08-02T10:29:13.138Z,63.31
2022-08-02T10:30:11.061Z,63.16
2022-08-02T10:31:11.083Z,63.27
2022-08-02T10:32:16.085Z,63.27
2022-08-02T10:33:12.064Z,63.43
2022-08-02T10:34:12.067Z,63.47
2022-08-02T10:35:19.503Z,63.41
2022-08-02T10:36:13.108Z,63.56
2022-08-02T10:37:11.064Z,63.32
2022-08-02T10:38:12.060Z,63.40
2022-08-02T10:39:11.062Z,63.40
2022-08-02T10:40:11.061Z,63.42
2022-08-02T10:41:11.062Z,63.46
2022-08-02T10:42:13.545Z,63.41
2022-08-02T10:43:11.073Z,63.82
2022-08-02T10:44:24.314Z,63.70
2022-08-02T10:45:16.303Z,63.54
2022-08-02T10:46:19.073Z,63.75
2022-08-02T10:47:19.065Z,63.55
2022-08-02T10:48:13.063Z,63.38
2022-08-02T10:49:38.092Z,63.22
2022-08-02T10:50:13.270Z,63.04
2022-08-02T10:51:11.070Z,62.94
2022-08-02T10:52:11.574Z,63.00
2022-08-02T10:53:19.062Z,62.60
2022-08-02T10:54:11.070Z,62.36
2022-08-02T10:55:13.534Z,62.33
2022-08-02T10:56:11.060Z,62.16
2022-08-02T10:57:15.373Z,61.93
2022-08-02T10:58:18.066Z,61.74
2022-08-02T10:59:19.063Z,61.51
2022-08-02T11:00:19.596Z,61.33
2022-08-02T11:01:19.192Z,61.16
2022-08-02T11:02:11.072Z,60.92
2022-08-02T11:03:19.065Z,60.87
2022-08-02T11:04:11.063Z,60.79
2022-08-02T11:05:18.076Z,60.54
2022-08-02T11:06:24.753Z,60.45
2022-08-02T11:07:21.088Z,60.02
2022-08-02T11:08:18.072Z,60.11
2022-08-02T11:09:22.068Z,60.24
2022-08-02T11:10:19.076Z,59.89
2022-08-02T11:11:18.767Z,60.12
2022-08-02T11:12:14.441Z,60.03
2022-08-02T11:13:15.083Z,59.88
2022-08-02T11:14:15.070Z,59.73
2022-08-02T11:15:11.070Z,59.31
2022-08-02T11:16:11.823Z,59.51
2022-08-02T11:17:17.069Z,59.44
2022-08-02T11:18:11.076Z,59.19
2022-08-02T11:19:11.067Z,59.05
2022-08-02T11:20:15.070Z,58.87
2022-08-02T11:21:19.070Z,58.85
2022-08-02T11:22:12.332Z,58.79
2022-08-02T11:23:19.057Z,58.66
2022-08-02T11:24:19.058Z,58.46
2022-08-02T11:25:22.060Z,58.42
2022-08-02T11:26:19.065Z,58.23
2022-08-02T11:27:15.054Z,58.29
2022-08-02T11:28:12.059Z,58.45
2022-08-02T11:29:15.795Z,58.42
2022-08-02T11:30:17.144Z,58.40
2022-08-02T11:31:11.057Z,58.42
2022-08-02T11:32:15.376Z,58.47
2022-08-02T11:33:11.066Z,58.58
2022-08-02T11:34:11.057Z,58.79
2022-08-02T11:35:13.106Z,58.81
2022-08-02T11:36:11.061Z,58.81
2022-08-02T11:37:11.060Z,58.92
2022-08-02T11:38:17.059Z,59.09
2022-08-02T11:39:15.886Z,59.02
2022-08-02T11:40:19.138Z,58.99
2022-08-02T11:41:15.057Z,58.97
2022-08-02T11:42:13.378Z,59.04
2022-08-02T11:43:17.064Z,59.20
2022-08-02T11:44:11.061Z,58.89
2022-08-02T11:45:11.061Z,58.74
2022-08-02T11:46:17.301Z,58.57
2022-08-02T11:47:11.063Z,58.70
2022-08-02T11:48:11.059Z,58.59
2022-08-02T11:49:17.180Z,58.53
2022-08-02T11:50:11.063Z,58.57
2022-08-02T11:51:14.085Z,58.84
2022-08-02T11:52:11.802Z,58.70
2022-08-02T11:53:15.072Z,58.74
2022-08-02T11:54:11.065Z,58.93
2022-08-02T11:55:11.065Z,59.15
2022-08-02T11:56:11.071Z,59.06
2022-08-02T11:57:17.094Z,59.07
2022-08-02T11:58:13.085Z,59.02
2022-08-02T11:59:12.927Z,58.86
2022-08-02T12:00:15.065Z,58.99
2022-08-02T12:01:11.062Z,59.15
2022-08-02T12:02:11.399Z,59.09
2022-08-02T12:03:11.172Z,59.10
2022-08-02T12:04:11.063Z,59.12
2022-08-02T12:05:15.068Z,59.20
2022-08-02T12:06:16.800Z,59.31
2022-08-02T12:07:13.180Z,59.31
2022-08-02T12:08:11.062Z,59.31
2022-08-02T12:09:18.300Z,59.16
2022-08-02T12:10:16.813Z,59.17
2022-08-02T12:11:11.065Z,59.18
2022-08-02T12:12:11.328Z,59.38
2022-08-02T12:13:11.068Z,59.52
2022-08-02T12:14:11.070Z,59.48
2022-08-02T12:15:11.080Z,59.52
2022-08-02T12:16:15.081Z,59.53
2022-08-02T12:17:15.067Z,59.64
2022-08-02T12:18:18.072Z,59.58
2022-08-02T12:19:15.075Z,59.66
2022-08-02T12:20:11.069Z,59.89
2022-08-02T12:21:19.065Z,60.10
2022-08-02T12:22:15.375Z,60.17
2022-08-02T12:23:11.065Z,59.98
2022-08-02T12:24:11.055Z,59.94
2022-08-02T12:25:34.568Z,60.12
2022-08-02T12:26:16.012Z,60.02
2022-08-02T12:27:11.059Z,60.01
2022-08-02T12:28:17.666Z,60.03
2022-08-02T12:29:11.060Z,59.72
2022-08-02T12:30:11.066Z,59.62
2022-08-02T12:31:11.057Z,59.33
2022-08-02T12:32:15.274Z,59.11
2022-08-02T12:33:13.091Z,58.87
2022-08-02T12:34:13.095Z,58.70
2022-08-02T12:35:14.067Z,58.77
2022-08-02T12:36:15.062Z,58.43
2022-08-02T12:37:11.060Z,58.35
2022-08-02T12:38:13.066Z,58.05
2022-08-02T12:39:13.062Z,57.93
2022-08-02T12:40:18.062Z,57.93
2022-08-02T12:41:31.113Z,57.72
2022-08-02T12:42:13.534Z,57.56
2022-08-02T12:43:18.068Z,57.46
2022-08-02T12:44:15.063Z,57.20
2022-08-02T12:45:11.060Z,57.03
2022-08-02T12:46:17.062Z,56.94
2022-08-02T12:47:11.065Z,56.94
2022-08-02T12:48:11.061Z,56.60
2022-08-02T12:49:18.854Z,56.32
2022-08-02T12:50:21.077Z,56.23
2022-08-02T12:51:19.070Z,56.29
2022-08-02T12:52:19.064Z,55.89